sensor_id;sensor_type;location;lat;lon;timestamp;temperature;humidity
22035;DHT22;11181;51.002;4.356;2023-08-06T00:00:57;17.30;99.90
22035;DHT22;11181;51.002;4.356;2023-08-06T00:03:23;17.30;99.90
22035;DHT22;11181;51.002;4.356;2023-08-06T00:05:50;17.30;99.90
22035;DHT22;11181;51.002;4.356;2023-08-06T00:08:17;17.30;99.90
22035;DHT22;11181;51.002;4.356;2023-08-06T00:10:47;17.30;99.90
22035;DHT22;11181;51.002;4.356;2023-08-06T00:13:14;17.30;99.90
22035;DHT22;11181;51.002;4.356;2023-08-06T00:15:41;17.30;99.90
22035;DHT22;11181;51.002;4.356;2023-08-06T00:18:08;17.40;99.90
22035;DHT22;11181;51.002;4.356;2023-08-06T00:20:34;17.30;99.90
22035;DHT22;11181;51.002;4.356;2023-08-06T00:23:01;17.30;99.90
22035;DHT22;11181;51.002;4.356;2023-08-06T00:25:28;17.30;99.90
22035;DHT22;11181;51.002;4.356;2023-08-06T00:27:56;17.30;99.90
22035;DHT22;11181;51.002;4.356;2023-08-06T00:30:23;17.40;99.90
22035;DHT22;11181;51.002;4.356;2023-08-06T00:32:50;17.40;99.90
22035;DHT22;11181;51.002;4.356;2023-08-06T00:35:17;17.40;99.90
22035;DHT22;11181;51.002;4.356;2023-08-06T00:37:44;17.50;99.90
22035;DHT22;11181;51.002;4.356;2023-08-06T00:40:11;17.60;99.90
22035;DHT22;11181;51.002;4.356;2023-08-06T00:42:38;17.70;99.90
22035;DHT22;11181;51.002;4.356;2023-08-06T00:45:07;17.70;99.90
22035;DHT22;11181;51.002;4.356;2023-08-06T00:47:34;17.80;99.90
22035;DHT22;11181;51.002;4.356;2023-08-06T00:50:01;17.90;99.90
22035;DHT22;11181;51.002;4.356;2023-08-06T00:52:28;17.80;99.90
22035;DHT22;11181;51.002;4.356;2023-08-06T00:54:55;17.80;99.90
22035;DHT22;11181;51.002;4.356;2023-08-06T00:57:24;17.90;99.90
22035;DHT22;11181;51.002;4.356;2023-08-06T00:59:53;18.00;99.90
22035;DHT22;11181;51.002;4.356;2023-08-06T01:02:21;18.00;99.90
22035;DHT22;11181;51.002;4.356;2023-08-06T01:04:48;18.10;99.90
22035;DHT22;11181;51.002;4.356;2023-08-06T01:07:21;18.10;99.90
22035;DHT22;11181;51.002;4.356;2023-08-06T01:10:11;18.00;99.90
22035;DHT22;11181;51.002;4.356;2023-08-06T01:12:48;18.00;99.90
22035;DHT22;11181;51.002;4.356;2023-08-06T01:15:21;18.00;99.90
22035;DHT22;11181;51.002;4.356;2023-08-06T01:17:50;18.00;99.90
22035;DHT22;11181;51.002;4.356;2023-08-06T01:20:17;18.00;99.90
22035;DHT22;11181;51.002;4.356;2023-08-06T01:22:45;18.10;99.90
22035;DHT22;11181;51.002;4.356;2023-08-06T01:25:15;18.10;99.90
22035;DHT22;11181;51.002;4.356;2023-08-06T01:27:46;18.00;99.90
22035;DHT22;11181;51.002;4.356;2023-08-06T01:30:18;18.00;99.90
22035;DHT22;11181;51.002;4.356;2023-08-06T01:32:51;18.10;99.90
22035;DHT22;11181;51.002;4.356;2023-08-06T01:35:20;18.20;99.90
22035;DHT22;11181;51.002;4.356;2023-08-06T01:37:49;18.20;99.90
22035;DHT22;11181;51.002;4.356;2023-08-06T01:40:16;18.30;99.90
22035;DHT22;11181;51.002;4.356;2023-08-06T01:42:43;18.30;99.90
22035;DHT22;11181;51.002;4.356;2023-08-06T01:45:10;18.40;99.90
22035;DHT22;11181;51.002;4.356;2023-08-06T01:47:37;18.40;99.90
22035;DHT22;11181;51.002;4.356;2023-08-06T01:50:04;18.50;99.90
22035;DHT22;11181;51.002;4.356;2023-08-06T01:52:31;18.50;99.90
22035;DHT22;11181;51.002;4.356;2023-08-06T01:55:00;18.60;99.90
22035;DHT22;11181;51.002;4.356;2023-08-06T01:57:27;18.60;99.90
22035;DHT22;11181;51.002;4.356;2023-08-06T01:59:53;18.60;99.90
22035;DHT22;11181;51.002;4.356;2023-08-06T02:02:20;18.50;99.90
22035;DHT22;11181;51.002;4.356;2023-08-06T02:04:47;18.50;99.90
22035;DHT22;11181;51.002;4.356;2023-08-06T02:07:14;18.50;99.90
22035;DHT22;11181;51.002;4.356;2023-08-06T02:09:41;18.50;99.90
22035;DHT22;11181;51.002;4.356;2023-08-06T02:12:09;18.50;99.90
22035;DHT22;11181;51.002;4.356;2023-08-06T02:14:37;18.50;99.90
22035;DHT22;11181;51.002;4.356;2023-08-06T02:17:04;18.50;99.90
22035;DHT22;11181;51.002;4.356;2023-08-06T02:19:30;18.50;99.90
22035;DHT22;11181;51.002;4.356;2023-08-06T02:21:57;18.40;99.90
22035;DHT22;11181;51.002;4.356;2023-08-06T02:24:23;18.40;99.90
22035;DHT22;11181;51.002;4.356;2023-08-06T02:26:50;18.30;99.90
22035;DHT22;11181;51.002;4.356;2023-08-06T02:29:22;18.40;99.90
22035;DHT22;11181;51.002;4.356;2023-08-06T02:31:49;18.40;99.90
22035;DHT22;11181;51.002;4.356;2023-08-06T02:34:16;18.50;99.90
22035;DHT22;11181;51.002;4.356;2023-08-06T02:36:43;18.50;99.90
22035;DHT22;11181;51.002;4.356;2023-08-06T02:39:10;18.50;99.90
22035;DHT22;11181;51.002;4.356;2023-08-06T02:41:37;18.60;99.90
22035;DHT22;11181;51.002;4.356;2023-08-06T02:44:04;18.50;99.90
22035;DHT22;11181;51.002;4.356;2023-08-06T02:46:32;18.50;99.90
22035;DHT22;11181;51.002;4.356;2023-08-06T02:48:59;18.50;99.90
22035;DHT22;11181;51.002;4.356;2023-08-06T02:51:26;18.50;99.90
22035;DHT22;11181;51.002;4.356;2023-08-06T02:53:52;18.40;99.90
22035;DHT22;11181;51.002;4.356;2023-08-06T02:56:19;18.30;99.90
22035;DHT22;11181;51.002;4.356;2023-08-06T02:58:46;18.20;99.90
22035;DHT22;11181;51.002;4.356;2023-08-06T03:01:14;18.20;99.90
22035;DHT22;11181;51.002;4.356;2023-08-06T03:03:42;18.10;99.90
22035;DHT22;11181;51.002;4.356;2023-08-06T03:06:09;18.10;99.90
22035;DHT22;11181;51.002;4.356;2023-08-06T03:08:35;18.00;99.90
22035;DHT22;11181;51.002;4.356;2023-08-06T03:11:02;17.90;99.90
22035;DHT22;11181;51.002;4.356;2023-08-06T03:13:29;17.80;99.90
22035;DHT22;11181;51.002;4.356;2023-08-06T03:15:57;17.70;99.90
22035;DHT22;11181;51.002;4.356;2023-08-06T03:18:24;17.70;99.90
22035;DHT22;11181;51.002;4.356;2023-08-06T03:20:53;17.80;99.90
22035;DHT22;11181;51.002;4.356;2023-08-06T03:23:20;17.90;99.90
22035;DHT22;11181;51.002;4.356;2023-08-06T03:25:47;17.90;99.90
22035;DHT22;11181;51.002;4.356;2023-08-06T03:28:14;17.80;99.90
22035;DHT22;11181;51.002;4.356;2023-08-06T03:30:41;17.70;99.90
22035;DHT22;11181;51.002;4.356;2023-08-06T03:33:08;17.80;99.90
22035;DHT22;11181;51.002;4.356;2023-08-06T03:35:35;17.80;99.90
22035;DHT22;11181;51.002;4.356;2023-08-06T03:38:03;17.80;99.90
22035;DHT22;11181;51.002;4.356;2023-08-06T03:40:30;17.80;99.90
22035;DHT22;11181;51.002;4.356;2023-08-06T03:42:57;17.60;99.90
22035;DHT22;11181;51.002;4.356;2023-08-06T03:45:23;17.40;99.90
22035;DHT22;11181;51.002;4.356;2023-08-06T03:47:50;17.40;99.90
22035;DHT22;11181;51.002;4.356;2023-08-06T03:50:17;17.30;99.90
22035;DHT22;11181;51.002;4.356;2023-08-06T03:52:44;17.10;99.90
22035;DHT22;11181;51.002;4.356;2023-08-06T03:55:12;16.90;99.90
22035;DHT22;11181;51.002;4.356;2023-08-06T03:57:39;16.70;99.90
22035;DHT22;11181;51.002;4.356;2023-08-06T04:00:07;16.60;99.90
22035;DHT22;11181;51.002;4.356;2023-08-06T04:02:34;16.40;99.90
22035;DHT22;11181;51.002;4.356;2023-08-06T04:05:01;16.20;99.90
22035;DHT22;11181;51.002;4.356;2023-08-06T04:07:28;16.00;99.90
22035;DHT22;11181;51.002;4.356;2023-08-06T04:09:57;15.90;99.90
22035;DHT22;11181;51.002;4.356;2023-08-06T04:12:25;15.80;99.90
22035;DHT22;11181;51.002;4.356;2023-08-06T04:14:52;15.60;99.90
22035;DHT22;11181;51.002;4.356;2023-08-06T04:17:20;15.50;99.90
22035;DHT22;11181;51.002;4.356;2023-08-06T04:19:48;15.30;99.90
22035;DHT22;11181;51.002;4.356;2023-08-06T04:22:15;15.20;99.90
22035;DHT22;11181;51.002;4.356;2023-08-06T04:24:42;15.20;99.90
22035;DHT22;11181;51.002;4.356;2023-08-06T04:27:10;15.10;99.90
22035;DHT22;11181;51.002;4.356;2023-08-06T04:29:38;15.10;99.90
22035;DHT22;11181;51.002;4.356;2023-08-06T04:32:07;14.90;99.90
22035;DHT22;11181;51.002;4.356;2023-08-06T04:34:34;14.70;99.90
22035;DHT22;11181;51.002;4.356;2023-08-06T04:37:01;14.60;99.90
22035;DHT22;11181;51.002;4.356;2023-08-06T04:39:29;14.70;99.90
22035;DHT22;11181;51.002;4.356;2023-08-06T04:41:56;14.60;99.90
22035;DHT22;11181;51.002;4.356;2023-08-06T04:44:24;14.60;99.90
22035;DHT22;11181;51.002;4.356;2023-08-06T04:46:52;14.50;99.90
22035;DHT22;11181;51.002;4.356;2023-08-06T04:49:20;14.50;99.90
22035;DHT22;11181;51.002;4.356;2023-08-06T04:51:47;14.40;99.90
22035;DHT22;11181;51.002;4.356;2023-08-06T04:54:14;14.50;99.90
22035;DHT22;11181;51.002;4.356;2023-08-06T04:56:41;14.60;99.90
22035;DHT22;11181;51.002;4.356;2023-08-06T04:59:08;14.70;99.90
22035;DHT22;11181;51.002;4.356;2023-08-06T05:01:35;14.80;99.90
22035;DHT22;11181;51.002;4.356;2023-08-06T05:04:03;14.70;99.90
22035;DHT22;11181;51.002;4.356;2023-08-06T05:06:30;14.70;99.90
22035;DHT22;11181;51.002;4.356;2023-08-06T05:08:57;14.70;99.90
22035;DHT22;11181;51.002;4.356;2023-08-06T05:11:24;14.70;99.90
22035;DHT22;11181;51.002;4.356;2023-08-06T05:13:51;14.80;99.90
22035;DHT22;11181;51.002;4.356;2023-08-06T05:16:18;14.70;99.90
22035;DHT22;11181;51.002;4.356;2023-08-06T05:18:45;14.80;99.90
22035;DHT22;11181;51.002;4.356;2023-08-06T05:21:13;14.80;99.90
22035;DHT22;11181;51.002;4.356;2023-08-06T05:23:41;14.80;99.90
22035;DHT22;11181;51.002;4.356;2023-08-06T05:26:08;14.80;99.90
22035;DHT22;11181;51.002;4.356;2023-08-06T05:28:35;14.90;99.90
22035;DHT22;11181;51.002;4.356;2023-08-06T05:31:03;14.90;99.90
22035;DHT22;11181;51.002;4.356;2023-08-06T05:33:30;15.00;99.90
22035;DHT22;11181;51.002;4.356;2023-08-06T05:35:57;15.00;99.90
22035;DHT22;11181;51.002;4.356;2023-08-06T05:38:26;15.00;99.90
22035;DHT22;11181;51.002;4.356;2023-08-06T05:40:53;15.00;99.90
22035;DHT22;11181;51.002;4.356;2023-08-06T05:43:20;15.10;99.90
22035;DHT22;11181;51.002;4.356;2023-08-06T05:45:49;15.20;99.90
22035;DHT22;11181;51.002;4.356;2023-08-06T05:48:16;15.20;99.90
22035;DHT22;11181;51.002;4.356;2023-08-06T05:50:43;15.30;99.90
22035;DHT22;11181;51.002;4.356;2023-08-06T05:53:10;15.30;99.90
22035;DHT22;11181;51.002;4.356;2023-08-06T05:55:38;15.30;99.90
22035;DHT22;11181;51.002;4.356;2023-08-06T05:58:05;15.40;99.90
22035;DHT22;11181;51.002;4.356;2023-08-06T06:00:32;15.40;99.90
22035;DHT22;11181;51.002;4.356;2023-08-06T06:03:00;15.30;99.90
22035;DHT22;11181;51.002;4.356;2023-08-06T06:05:27;15.30;99.90
22035;DHT22;11181;51.002;4.356;2023-08-06T06:07:54;15.40;99.90
22035;DHT22;11181;51.002;4.356;2023-08-06T06:10:21;15.50;99.90
22035;DHT22;11181;51.002;4.356;2023-08-06T06:12:49;15.60;99.90
22035;DHT22;11181;51.002;4.356;2023-08-06T06:15:16;15.60;99.90
22035;DHT22;11181;51.002;4.356;2023-08-06T06:17:43;15.70;99.90
22035;DHT22;11181;51.002;4.356;2023-08-06T06:20:10;15.90;99.90
22035;DHT22;11181;51.002;4.356;2023-08-06T06:22:44;16.00;99.90
22035;DHT22;11181;51.002;4.356;2023-08-06T06:25:15;16.00;99.90
22035;DHT22;11181;51.002;4.356;2023-08-06T06:27:42;16.10;99.90
22035;DHT22;11181;51.002;4.356;2023-08-06T06:30:10;16.20;99.90
22035;DHT22;11181;51.002;4.356;2023-08-06T06:32:38;16.30;99.90
22035;DHT22;11181;51.002;4.356;2023-08-06T06:35:07;16.20;99.90
22035;DHT22;11181;51.002;4.356;2023-08-06T06:37:34;16.20;99.90
22035;DHT22;11181;51.002;4.356;2023-08-06T06:40:01;16.30;99.90
22035;DHT22;11181;51.002;4.356;2023-08-06T06:42:28;16.40;99.90
22035;DHT22;11181;51.002;4.356;2023-08-06T06:44:54;16.40;99.90
22035;DHT22;11181;51.002;4.356;2023-08-06T06:47:23;16.50;99.90
22035;DHT22;11181;51.002;4.356;2023-08-06T06:49:50;16.50;99.90
22035;DHT22;11181;51.002;4.356;2023-08-06T06:52:16;16.60;99.90
22035;DHT22;11181;51.002;4.356;2023-08-06T06:54:43;16.60;99.90
22035;DHT22;11181;51.002;4.356;2023-08-06T06:57:10;16.70;99.90
22035;DHT22;11181;51.002;4.356;2023-08-06T06:59:37;16.70;99.90
22035;DHT22;11181;51.002;4.356;2023-08-06T07:02:05;16.70;99.90
22035;DHT22;11181;51.002;4.356;2023-08-06T07:04:33;16.60;99.90
22035;DHT22;11181;51.002;4.356;2023-08-06T07:07:00;16.60;99.90
22035;DHT22;11181;51.002;4.356;2023-08-06T07:09:27;16.60;99.90
22035;DHT22;11181;51.002;4.356;2023-08-06T07:11:54;16.60;99.90
22035;DHT22;11181;51.002;4.356;2023-08-06T07:14:21;16.50;99.90
22035;DHT22;11181;51.002;4.356;2023-08-06T07:16:48;16.60;99.90
22035;DHT22;11181;51.002;4.356;2023-08-06T07:19:15;16.60;99.90
22035;DHT22;11181;51.002;4.356;2023-08-06T07:21:43;16.70;99.90
22035;DHT22;11181;51.002;4.356;2023-08-06T07:24:10;16.70;99.90
22035;DHT22;11181;51.002;4.356;2023-08-06T07:26:37;16.60;99.90
22035;DHT22;11181;51.002;4.356;2023-08-06T07:29:04;16.40;99.90
22035;DHT22;11181;51.002;4.356;2023-08-06T07:31:31;15.90;99.90
22035;DHT22;11181;51.002;4.356;2023-08-06T07:33:57;15.80;99.90
22035;DHT22;11181;51.002;4.356;2023-08-06T07:36:24;15.70;99.90
22035;DHT22;11181;51.002;4.356;2023-08-06T07:38:52;15.90;99.90
22035;DHT22;11181;51.002;4.356;2023-08-06T07:41:22;16.00;99.90
22035;DHT22;11181;51.002;4.356;2023-08-06T07:43:49;16.10;99.90
22035;DHT22;11181;51.002;4.356;2023-08-06T07:46:16;16.20;99.90
22035;DHT22;11181;51.002;4.356;2023-08-06T07:48:43;16.30;99.90
22035;DHT22;11181;51.002;4.356;2023-08-06T07:51:10;16.30;99.90
22035;DHT22;11181;51.002;4.356;2023-08-06T07:53:36;16.30;99.90
22035;DHT22;11181;51.002;4.356;2023-08-06T07:56:05;16.30;99.90
22035;DHT22;11181;51.002;4.356;2023-08-06T07:58:32;16.30;99.90
22035;DHT22;11181;51.002;4.356;2023-08-06T08:00:58;16.30;99.90
22035;DHT22;11181;51.002;4.356;2023-08-06T08:03:25;16.50;99.90
22035;DHT22;11181;51.002;4.356;2023-08-06T08:05:55;16.60;99.90
22035;DHT22;11181;51.002;4.356;2023-08-06T08:08:24;16.60;99.90
22035;DHT22;11181;51.002;4.356;2023-08-06T08:10:51;16.70;99.90
22035;DHT22;11181;51.002;4.356;2023-08-06T08:13:19;16.80;99.90
22035;DHT22;11181;51.002;4.356;2023-08-06T08:15:46;16.80;99.90
22035;DHT22;11181;51.002;4.356;2023-08-06T08:18:13;16.80;99.90
22035;DHT22;11181;51.002;4.356;2023-08-06T08:20:39;16.60;99.90
22035;DHT22;11181;51.002;4.356;2023-08-06T08:23:06;16.60;99.90
22035;DHT22;11181;51.002;4.356;2023-08-06T08:25:33;16.60;99.90
22035;DHT22;11181;51.002;4.356;2023-08-06T08:28:00;16.60;99.90
22035;DHT22;11181;51.002;4.356;2023-08-06T08:30:28;16.70;99.90
22035;DHT22;11181;51.002;4.356;2023-08-06T08:32:55;16.70;99.90
22035;DHT22;11181;51.002;4.356;2023-08-06T08:35:22;16.60;99.90
22035;DHT22;11181;51.002;4.356;2023-08-06T08:37:49;16.40;99.90
22035;DHT22;11181;51.002;4.356;2023-08-06T08:40:17;16.40;99.90
22035;DHT22;11181;51.002;4.356;2023-08-06T08:42:44;16.40;99.90
22035;DHT22;11181;51.002;4.356;2023-08-06T08:45:12;16.40;99.90
22035;DHT22;11181;51.002;4.356;2023-08-06T08:47:42;16.40;99.90
22035;DHT22;11181;51.002;4.356;2023-08-06T08:50:10;16.50;99.90
22035;DHT22;11181;51.002;4.356;2023-08-06T08:52:38;16.40;99.90
22035;DHT22;11181;51.002;4.356;2023-08-06T08:55:07;16.40;99.90
22035;DHT22;11181;51.002;4.356;2023-08-06T08:57:34;16.30;99.90
22035;DHT22;11181;51.002;4.356;2023-08-06T09:00:01;16.30;99.90
22035;DHT22;11181;51.002;4.356;2023-08-06T09:02:29;16.30;99.90
22035;DHT22;11181;51.002;4.356;2023-08-06T09:05:00;16.20;99.90
22035;DHT22;11181;51.002;4.356;2023-08-06T09:07:32;16.10;99.90
22035;DHT22;11181;51.002;4.356;2023-08-06T09:10:02;16.00;99.90
22035;DHT22;11181;51.002;4.356;2023-08-06T09:12:30;16.10;99.90
22035;DHT22;11181;51.002;4.356;2023-08-06T09:14:57;16.10;99.90
22035;DHT22;11181;51.002;4.356;2023-08-06T09:17:24;16.10;99.90
22035;DHT22;11181;51.002;4.356;2023-08-06T09:19:51;15.90;99.90
22035;DHT22;11181;51.002;4.356;2023-08-06T09:22:19;16.00;99.90
22035;DHT22;11181;51.002;4.356;2023-08-06T09:24:46;16.10;99.90
22035;DHT22;11181;51.002;4.356;2023-08-06T09:27:14;16.10;99.90
22035;DHT22;11181;51.002;4.356;2023-08-06T09:29:42;16.10;99.90
22035;DHT22;11181;51.002;4.356;2023-08-06T09:32:10;16.10;99.90
22035;DHT22;11181;51.002;4.356;2023-08-06T09:34:39;16.10;99.90
22035;DHT22;11181;51.002;4.356;2023-08-06T09:37:07;16.00;99.90
22035;DHT22;11181;51.002;4.356;2023-08-06T09:39:38;15.90;99.90
22035;DHT22;11181;51.002;4.356;2023-08-06T09:42:05;15.90;99.90
22035;DHT22;11181;51.002;4.356;2023-08-06T09:44:33;15.90;99.90
22035;DHT22;11181;51.002;4.356;2023-08-06T09:47:01;15.80;99.90
22035;DHT22;11181;51.002;4.356;2023-08-06T09:49:39;15.90;99.90
22035;DHT22;11181;51.002;4.356;2023-08-06T09:52:07;15.90;99.90
22035;DHT22;11181;51.002;4.356;2023-08-06T09:54:38;15.80;99.90
22035;DHT22;11181;51.002;4.356;2023-08-06T09:57:05;15.80;99.90
22035;DHT22;11181;51.002;4.356;2023-08-06T09:59:33;15.80;99.90
22035;DHT22;11181;51.002;4.356;2023-08-06T10:02:01;15.90;99.90
22035;DHT22;11181;51.002;4.356;2023-08-06T10:04:30;16.00;99.90
22035;DHT22;11181;51.002;4.356;2023-08-06T10:06:58;16.00;99.90
22035;DHT22;11181;51.002;4.356;2023-08-06T10:09:26;16.00;99.90
22035;DHT22;11181;51.002;4.356;2023-08-06T10:11:54;16.00;99.90
22035;DHT22;11181;51.002;4.356;2023-08-06T10:14:27;16.10;99.90
22035;DHT22;11181;51.002;4.356;2023-08-06T10:16:57;15.90;99.90
22035;DHT22;11181;51.002;4.356;2023-08-06T10:19:25;15.90;99.90
22035;DHT22;11181;51.002;4.356;2023-08-06T10:22:12;15.90;99.90
22035;DHT22;11181;51.002;4.356;2023-08-06T10:24:46;15.90;99.90
22035;DHT22;11181;51.002;4.356;2023-08-06T10:27:20;15.80;99.90
22035;DHT22;11181;51.002;4.356;2023-08-06T10:29:47;15.80;99.90
22035;DHT22;11181;51.002;4.356;2023-08-06T10:32:15;15.90;99.90
22035;DHT22;11181;51.002;4.356;2023-08-06T10:34:56;15.90;99.90
22035;DHT22;11181;51.002;4.356;2023-08-06T10:37:24;15.90;99.90
22035;DHT22;11181;51.002;4.356;2023-08-06T10:39:52;15.80;99.90
22035;DHT22;11181;51.002;4.356;2023-08-06T10:42:27;15.90;99.90
22035;DHT22;11181;51.002;4.356;2023-08-06T10:45:14;16.00;99.90
22035;DHT22;11181;51.002;4.356;2023-08-06T10:47:42;16.00;99.90
22035;DHT22;11181;51.002;4.356;2023-08-06T10:50:11;16.00;99.90
22035;DHT22;11181;51.002;4.356;2023-08-06T10:52:38;16.00;99.90
22035;DHT22;11181;51.002;4.356;2023-08-06T10:55:06;16.00;99.90
22035;DHT22;11181;51.002;4.356;2023-08-06T10:57:36;16.00;99.90
22035;DHT22;11181;51.002;4.356;2023-08-06T11:00:05;15.90;99.90
22035;DHT22;11181;51.002;4.356;2023-08-06T11:02:34;15.90;99.90
22035;DHT22;11181;51.002;4.356;2023-08-06T11:05:06;15.80;99.90
22035;DHT22;11181;51.002;4.356;2023-08-06T11:07:33;15.90;99.90
22035;DHT22;11181;51.002;4.356;2023-08-06T11:10:04;15.90;99.90
22035;DHT22;11181;51.002;4.356;2023-08-06T11:12:32;16.00;99.90
22035;DHT22;11181;51.002;4.356;2023-08-06T11:15:01;16.00;99.90
22035;DHT22;11181;51.002;4.356;2023-08-06T11:17:29;16.00;99.90
22035;DHT22;11181;51.002;4.356;2023-08-06T11:19:59;16.10;99.90
22035;DHT22;11181;51.002;4.356;2023-08-06T11:22:26;16.10;99.90
22035;DHT22;11181;51.002;4.356;2023-08-06T11:24:55;16.20;99.90
22035;DHT22;11181;51.002;4.356;2023-08-06T11:27:22;16.10;99.90
22035;DHT22;11181;51.002;4.356;2023-08-06T11:29:49;15.90;99.90
22035;DHT22;11181;51.002;4.356;2023-08-06T11:32:17;15.80;99.90
22035;DHT22;11181;51.002;4.356;2023-08-06T11:34:44;15.70;99.90
22035;DHT22;11181;51.002;4.356;2023-08-06T11:37:11;15.80;99.90
22035;DHT22;11181;51.002;4.356;2023-08-06T11:39:38;15.60;99.90
22035;DHT22;11181;51.002;4.356;2023-08-06T11:42:06;15.70;99.90
22035;DHT22;11181;51.002;4.356;2023-08-06T11:44:35;15.80;99.90
22035;DHT22;11181;51.002;4.356;2023-08-06T11:47:04;15.80;99.90
22035;DHT22;11181;51.002;4.356;2023-08-06T11:49:40;16.00;99.90
22035;DHT22;11181;51.002;4.356;2023-08-06T11:52:20;16.10;99.90
22035;DHT22;11181;51.002;4.356;2023-08-06T11:55:00;16.10;99.90
22035;DHT22;11181;51.002;4.356;2023-08-06T11:57:29;16.10;99.90
22035;DHT22;11181;51.002;4.356;2023-08-06T12:00:01;16.10;99.90
22035;DHT22;11181;51.002;4.356;2023-08-06T12:02:31;16.10;99.90
22035;DHT22;11181;51.002;4.356;2023-08-06T12:05:05;16.10;99.90
22035;DHT22;11181;51.002;4.356;2023-08-06T12:07:37;16.20;99.90
22035;DHT22;11181;51.002;4.356;2023-08-06T12:10:05;16.30;99.90
22035;DHT22;11181;51.002;4.356;2023-08-06T12:12:33;16.30;99.90
22035;DHT22;11181;51.002;4.356;2023-08-06T12:15:00;16.20;99.90
22035;DHT22;11181;51.002;4.356;2023-08-06T12:17:27;16.20;99.90
22035;DHT22;11181;51.002;4.356;2023-08-06T12:19:54;16.30;99.90
22035;DHT22;11181;51.002;4.356;2023-08-06T12:22:22;16.20;99.90
22035;DHT22;11181;51.002;4.356;2023-08-06T12:24:49;16.00;99.90
22035;DHT22;11181;51.002;4.356;2023-08-06T12:27:16;16.00;99.90
22035;DHT22;11181;51.002;4.356;2023-08-06T12:29:44;16.00;99.90
22035;DHT22;11181;51.002;4.356;2023-08-06T12:32:12;16.10;99.90
22035;DHT22;11181;51.002;4.356;2023-08-06T12:34:39;16.10;99.90
22035;DHT22;11181;51.002;4.356;2023-08-06T12:37:07;16.10;99.90
22035;DHT22;11181;51.002;4.356;2023-08-06T12:39:35;16.00;99.90
22035;DHT22;11181;51.002;4.356;2023-08-06T12:42:04;16.00;99.90
22035;DHT22;11181;51.002;4.356;2023-08-06T12:44:32;15.90;99.90
22035;DHT22;11181;51.002;4.356;2023-08-06T12:46:59;15.80;99.90
22035;DHT22;11181;51.002;4.356;2023-08-06T12:49:26;15.80;99.90
22035;DHT22;11181;51.002;4.356;2023-08-06T12:51:54;15.80;99.90
22035;DHT22;11181;51.002;4.356;2023-08-06T12:54:22;15.80;99.90
22035;DHT22;11181;51.002;4.356;2023-08-06T12:56:51;15.70;99.90
22035;DHT22;11181;51.002;4.356;2023-08-06T12:59:18;15.70;99.90
22035;DHT22;11181;51.002;4.356;2023-08-06T13:01:45;15.50;99.90
22035;DHT22;11181;51.002;4.356;2023-08-06T13:04:14;15.60;99.90
22035;DHT22;11181;51.002;4.356;2023-08-06T13:06:41;15.60;99.90
22035;DHT22;11181;51.002;4.356;2023-08-06T13:09:08;15.70;99.90
22035;DHT22;11181;51.002;4.356;2023-08-06T13:11:35;15.80;99.90
22035;DHT22;11181;51.002;4.356;2023-08-06T13:14:08;15.70;99.90
22035;DHT22;11181;51.002;4.356;2023-08-06T13:16:36;15.70;99.90
22035;DHT22;11181;51.002;4.356;2023-08-06T13:19:04;15.60;99.90
22035;DHT22;11181;51.002;4.356;2023-08-06T13:21:35;15.70;99.90
22035;DHT22;11181;51.002;4.356;2023-08-06T13:24:02;15.70;99.90
22035;DHT22;11181;51.002;4.356;2023-08-06T13:26:29;15.60;99.90
22035;DHT22;11181;51.002;4.356;2023-08-06T13:28:57;15.60;99.90
22035;DHT22;11181;51.002;4.356;2023-08-06T13:31:26;15.60;99.90
22035;DHT22;11181;51.002;4.356;2023-08-06T13:33:54;15.50;99.90
22035;DHT22;11181;51.002;4.356;2023-08-06T13:36:23;15.50;99.90
22035;DHT22;11181;51.002;4.356;2023-08-06T13:38:50;15.40;99.90
22035;DHT22;11181;51.002;4.356;2023-08-06T13:41:17;15.40;99.90
22035;DHT22;11181;51.002;4.356;2023-08-06T13:43:44;15.30;99.90
22035;DHT22;11181;51.002;4.356;2023-08-06T13:46:11;15.40;99.90
22035;DHT22;11181;51.002;4.356;2023-08-06T13:48:43;15.40;99.90
22035;DHT22;11181;51.002;4.356;2023-08-06T13:51:11;15.40;99.90
22035;DHT22;11181;51.002;4.356;2023-08-06T13:53:38;15.40;99.90
22035;DHT22;11181;51.002;4.356;2023-08-06T13:56:05;15.30;99.90
22035;DHT22;11181;51.002;4.356;2023-08-06T13:58:32;15.30;99.90
22035;DHT22;11181;51.002;4.356;2023-08-06T14:00:59;15.10;99.90
22035;DHT22;11181;51.002;4.356;2023-08-06T14:03:26;15.20;99.90
22035;DHT22;11181;51.002;4.356;2023-08-06T14:05:54;15.30;99.90
22035;DHT22;11181;51.002;4.356;2023-08-06T14:08:22;15.50;99.90
22035;DHT22;11181;51.002;4.356;2023-08-06T14:10:49;15.50;99.90
22035;DHT22;11181;51.002;4.356;2023-08-06T14:13:16;15.30;99.90
22035;DHT22;11181;51.002;4.356;2023-08-06T14:15:43;15.30;99.90
22035;DHT22;11181;51.002;4.356;2023-08-06T14:18:12;15.30;99.90
22035;DHT22;11181;51.002;4.356;2023-08-06T14:20:39;15.30;99.90
22035;DHT22;11181;51.002;4.356;2023-08-06T14:23:07;15.30;99.90
22035;DHT22;11181;51.002;4.356;2023-08-06T14:25:34;15.30;99.90
22035;DHT22;11181;51.002;4.356;2023-08-06T14:28:01;15.40;99.90
22035;DHT22;11181;51.002;4.356;2023-08-06T14:30:28;15.50;99.90
22035;DHT22;11181;51.002;4.356;2023-08-06T14:32:55;15.60;99.90
22035;DHT22;11181;51.002;4.356;2023-08-06T14:35:23;15.70;99.90
22035;DHT22;11181;51.002;4.356;2023-08-06T14:37:50;15.70;99.90
22035;DHT22;11181;51.002;4.356;2023-08-06T14:40:18;15.80;99.90
22035;DHT22;11181;51.002;4.356;2023-08-06T14:42:45;15.80;99.90
22035;DHT22;11181;51.002;4.356;2023-08-06T14:45:12;15.80;99.90
22035;DHT22;11181;51.002;4.356;2023-08-06T14:47:39;15.80;99.90
22035;DHT22;11181;51.002;4.356;2023-08-06T14:50:06;15.80;99.90
22035;DHT22;11181;51.002;4.356;2023-08-06T14:52:33;15.60;99.90
22035;DHT22;11181;51.002;4.356;2023-08-06T14:55:00;15.50;99.90
22035;DHT22;11181;51.002;4.356;2023-08-06T14:57:30;15.60;99.90
22035;DHT22;11181;51.002;4.356;2023-08-06T14:59:57;15.70;99.90
22035;DHT22;11181;51.002;4.356;2023-08-06T15:02:26;15.70;99.90
22035;DHT22;11181;51.002;4.356;2023-08-06T15:04:53;15.60;99.90
22035;DHT22;11181;51.002;4.356;2023-08-06T15:07:19;15.50;99.90
22035;DHT22;11181;51.002;4.356;2023-08-06T15:09:46;15.60;99.90
22035;DHT22;11181;51.002;4.356;2023-08-06T15:12:13;15.60;99.90
22035;DHT22;11181;51.002;4.356;2023-08-06T15:14:42;15.70;99.90
22035;DHT22;11181;51.002;4.356;2023-08-06T15:17:08;15.90;99.90
22035;DHT22;11181;51.002;4.356;2023-08-06T15:19:35;16.00;99.90
22035;DHT22;11181;51.002;4.356;2023-08-06T15:22:03;16.00;99.90
22035;DHT22;11181;51.002;4.356;2023-08-06T15:24:30;15.80;99.90
22035;DHT22;11181;51.002;4.356;2023-08-06T15:26:55;15.90;99.90
22035;DHT22;11181;51.002;4.356;2023-08-06T15:29:22;16.10;99.90
22035;DHT22;11181;51.002;4.356;2023-08-06T15:31:51;16.00;99.90
22035;DHT22;11181;51.002;4.356;2023-08-06T15:34:17;16.10;99.90